createdAt,value
2023-05-17T00:00:07.249Z,4.41
2023-05-17T00:01:07.248Z,4.39
2023-05-17T00:02:07.200Z,4.35
2023-05-17T00:03:07.253Z,4.32
2023-05-17T00:04:07.190Z,4.25
2023-05-17T00:05:07.179Z,4.22
2023-05-17T00:06:07.220Z,4.20
2023-05-17T00:07:07.148Z,4.19
2023-05-17T00:08:07.126Z,4.17
2023-05-17T00:09:05.609Z,4.13
2023-05-17T00:10:07.134Z,4.14
2023-05-17T00:11:07.188Z,4.14
2023-05-17T00:12:07.088Z,4.12
2023-05-17T00:13:07.077Z,4.11
2023-05-17T00:14:07.052Z,4.10
2023-05-17T00:15:07.056Z,4.10
2023-05-17T00:16:07.015Z,4.11
2023-05-17T00:17:07.013Z,4.12
2023-05-17T00:18:07.069Z,4.12
2023-05-17T00:19:07.132Z,4.12
2023-05-17T00:20:06.993Z,4.13
2023-05-17T00:21:06.972Z,4.12
2023-05-17T00:22:06.950Z,4.11
2023-05-17T00:23:06.943Z,4.10
2023-05-17T00:24:06.920Z,4.11
2023-05-17T00:25:06.930Z,4.13
2023-05-17T00:26:06.902Z,4.15
2023-05-17T00:27:06.879Z,4.14
2023-05-17T00:28:06.872Z,4.11
2023-05-17T00:29:06.857Z,4.07
2023-05-17T00:30:06.870Z,4.06
2023-05-17T00:31:06.342Z,4.04
2023-05-17T00:32:06.816Z,4.01
2023-05-17T00:33:06.874Z,3.98
2023-05-17T00:34:06.797Z,3.98
2023-05-17T00:35:06.927Z,4.03
2023-05-17T00:36:06.771Z,4.06
2023-05-17T00:37:06.755Z,4.06
2023-05-17T00:38:06.732Z,4.05
2023-05-17T00:39:06.715Z,4.05
2023-05-17T00:40:06.757Z,4.06
2023-05-17T00:41:06.711Z,4.07
2023-05-17T00:42:06.712Z,4.08
2023-05-17T00:43:06.687Z,4.09
2023-05-17T00:44:06.730Z,4.10
2023-05-17T00:45:06.648Z,4.11
2023-05-17T00:46:06.642Z,4.11
2023-05-17T00:47:06.655Z,4.11
2023-05-17T00:48:06.685Z,4.12
2023-05-17T00:49:06.635Z,4.12
2023-05-17T00:50:06.601Z,4.11
2023-05-17T00:51:06.565Z,4.11
2023-05-17T00:52:06.548Z,4.10
2023-05-17T00:53:06.541Z,4.09
2023-05-17T00:54:06.537Z,4.05
2023-05-17T00:55:06.520Z,4.04
2023-05-17T00:56:06.514Z,4.00
2023-05-17T00:57:06.498Z,3.97
2023-05-17T00:58:06.466Z,3.94
2023-05-17T00:59:06.474Z,3.92
2023-05-17T01:00:05.966Z,3.89
2023-05-17T01:01:06.422Z,3.85
2023-05-17T01:02:06.414Z,3.80
2023-05-17T01:03:06.504Z,3.76
2023-05-17T01:04:06.582Z,3.74
2023-05-17T01:05:06.422Z,3.72
2023-05-17T01:06:06.363Z,3.72
2023-05-17T01:07:06.358Z,3.70
2023-05-17T01:08:06.351Z,3.68
2023-05-17T01:09:06.315Z,3.66
2023-05-17T01:10:06.321Z,3.63
2023-05-17T01:11:04.490Z,3.63
2023-05-17T01:12:06.283Z,3.63
2023-05-17T01:13:04.512Z,3.62
2023-05-17T01:14:06.264Z,3.62
2023-05-17T01:15:06.245Z,3.60
2023-05-17T01:16:06.233Z,3.59
2023-05-17T01:17:06.234Z,3.59
2023-05-17T01:18:06.298Z,3.60
2023-05-17T01:19:06.225Z,3.60
2023-05-17T01:20:06.435Z,3.60
2023-05-17T01:21:06.167Z,3.59
2023-05-17T01:22:06.163Z,3.59
2023-05-17T01:23:06.169Z,3.58
2023-05-17T01:24:06.122Z,3.57
2023-05-17T01:25:04.503Z,3.55
2023-05-17T01:26:06.119Z,3.53
2023-05-17T01:27:06.090Z,3.50
2023-05-17T01:28:06.084Z,3.49
2023-05-17T01:29:06.078Z,3.47
2023-05-17T01:30:06.058Z,3.45
2023-05-17T01:31:06.038Z,3.44
2023-05-17T01:32:06.037Z,3.43
2023-05-17T01:33:04.194Z,3.43
2023-05-17T01:34:06.036Z,3.43
2023-05-17T01:35:05.986Z,3.41
2023-05-17T01:36:05.965Z,3.38
2023-05-17T01:37:05.968Z,3.37
2023-05-17T01:38:05.958Z,3.38
2023-05-17T01:39:05.950Z,3.38
2023-05-17T01:40:05.930Z,3.37
2023-05-17T01:41:05.940Z,3.37
2023-05-17T01:42:05.956Z,3.34
2023-05-17T01:43:05.876Z,3.29
2023-05-17T01:44:05.871Z,3.25
2023-05-17T01:45:05.863Z,3.23
2023-05-17T01:46:05.887Z,3.21
2023-05-17T01:47:05.842Z,3.23
2023-05-17T01:48:05.876Z,3.28
2023-05-17T01:49:05.816Z,3.31
2023-05-17T01:50:05.780Z,3.32
2023-05-17T01:51:05.782Z,3.30
2023-05-17T01:52:05.762Z,3.27
2023-05-17T01:53:05.788Z,3.26
2023-05-17T01:54:05.748Z,3.25
2023-05-17T01:55:05.745Z,3.25
2023-05-17T01:56:06.066Z,3.24
2023-05-17T01:57:05.699Z,3.22
2023-05-17T01:58:05.683Z,3.20
2023-05-17T01:59:05.675Z,3.18
2023-05-17T02:00:05.660Z,3.17
2023-05-17T02:01:05.674Z,3.15
2023-05-17T02:02:05.621Z,3.13
2023-05-17T02:03:05.666Z,3.11
2023-05-17T02:04:05.629Z,3.12
2023-05-17T02:05:05.732Z,3.12
2023-05-17T02:06:05.581Z,3.11
2023-05-17T02:07:05.569Z,3.07
2023-05-17T02:08:05.553Z,3.03
2023-05-17T02:09:05.538Z,3.00
2023-05-17T02:10:05.537Z,2.98
2023-05-17T02:11:05.511Z,2.98
2023-05-17T02:12:05.495Z,2.98
2023-05-17T02:13:05.472Z,2.97
2023-05-17T02:14:05.471Z,2.97
2023-05-17T02:15:05.471Z,2.95
2023-05-17T02:16:05.436Z,2.93
2023-05-17T02:17:05.418Z,2.91
2023-05-17T02:18:05.495Z,2.88
2023-05-17T02:19:05.446Z,2.87
2023-05-17T02:20:05.398Z,2.86
2023-05-17T02:21:05.366Z,2.84
2023-05-17T02:22:05.349Z,2.82
2023-05-17T02:23:05.336Z,2.81
2023-05-17T02:24:05.340Z,2.82
2023-05-17T02:25:05.322Z,2.82
2023-05-17T02:26:05.304Z,2.82
2023-05-17T02:27:05.309Z,2.82
2023-05-17T02:28:05.266Z,2.81
2023-05-17T02:29:05.279Z,2.82
2023-05-17T02:30:03.691Z,2.81
2023-05-17T02:31:05.246Z,2.81
2023-05-17T02:32:03.842Z,2.81
2023-05-17T02:33:05.383Z,2.80
2023-05-17T02:34:05.223Z,2.79
2023-05-17T02:35:05.236Z,2.78
2023-05-17T02:36:05.190Z,2.79
2023-05-17T02:37:05.179Z,2.79
2023-05-17T02:38:05.144Z,2.79
2023-05-17T02:39:05.151Z,2.79
2023-05-17T02:40:05.138Z,2.78
2023-05-17T02:41:05.133Z,2.74
2023-05-17T02:42:05.104Z,2.71
2023-05-17T02:43:05.099Z,2.69
2023-05-17T02:44:05.078Z,2.70
2023-05-17T02:45:05.056Z,2.69
2023-05-17T02:46:05.072Z,2.65
2023-05-17T02:47:05.122Z,2.61
2023-05-17T02:48:05.070Z,2.62
2023-05-17T02:49:05.011Z,2.63
2023-05-17T02:50:04.993Z,2.71
2023-05-17T02:51:04.980Z,2.75
2023-05-17T02:52:04.959Z,2.77
2023-05-17T02:53:04.965Z,2.78
2023-05-17T02:54:04.937Z,2.78
2023-05-17T02:55:04.928Z,2.78
2023-05-17T02:56:04.901Z,2.79
2023-05-17T02:57:04.925Z,2.79
2023-05-17T02:58:04.915Z,2.80
2023-05-17T02:59:04.888Z,2.81
2023-05-17T03:00:04.870Z,2.81
2023-05-17T03:01:04.849Z,2.75
2023-05-17T03:02:04.840Z,2.71
2023-05-17T03:03:03.721Z,2.67
2023-05-17T03:04:04.934Z,2.64
2023-05-17T03:05:04.897Z,2.61
2023-05-17T03:06:04.784Z,2.58
2023-05-17T03:07:06.975Z,2.56
2023-05-17T03:08:04.748Z,2.54
2023-05-17T03:09:04.744Z,2.53
2023-05-17T03:10:04.718Z,2.54
2023-05-17T03:11:04.716Z,2.54
2023-05-17T03:12:04.700Z,2.52
2023-05-17T03:13:04.684Z,2.49
2023-05-17T03:14:04.675Z,2.46
2023-05-17T03:15:04.669Z,2.43
2023-05-17T03:16:04.678Z,2.40
2023-05-17T03:17:04.644Z,2.38
2023-05-17T03:18:04.702Z,2.36
2023-05-17T03:19:04.664Z,2.34
2023-05-17T03:20:04.621Z,2.32
2023-05-17T03:21:04.589Z,2.34
2023-05-17T03:22:04.570Z,2.35
2023-05-17T03:23:04.552Z,2.35
2023-05-17T03:24:04.541Z,2.35
2023-05-17T03:25:04.512Z,2.33
2023-05-17T03:26:04.515Z,2.31
2023-05-17T03:27:04.533Z,2.30
2023-05-17T03:28:04.472Z,2.29
2023-05-17T03:29:04.464Z,2.29
2023-05-17T03:30:04.470Z,2.28
2023-05-17T03:31:04.454Z,2.27
2023-05-17T03:32:04.422Z,2.26
2023-05-17T03:33:04.491Z,2.25
2023-05-17T03:34:04.422Z,2.29
2023-05-17T03:35:04.403Z,2.35
2023-05-17T03:36:04.381Z,2.40
2023-05-17T03:37:04.362Z,2.45
2023-05-17T03:38:04.356Z,2.49
2023-05-17T03:39:04.340Z,2.52
2023-05-17T03:40:04.337Z,2.53
2023-05-17T03:41:04.316Z,2.52
2023-05-17T03:42:04.300Z,2.51
2023-05-17T03:43:04.289Z,2.49
2023-05-17T03:44:04.267Z,2.49
2023-05-17T03:45:04.242Z,2.48
2023-05-17T03:46:04.234Z,2.46
2023-05-17T03:47:04.235Z,2.43
2023-05-17T03:48:04.279Z,2.38
2023-05-17T03:49:04.249Z,2.32
2023-05-17T03:50:04.195Z,2.26
2023-05-17T03:51:04.174Z,2.23
2023-05-17T03:52:04.152Z,2.21
2023-05-17T03:53:04.159Z,2.20
2023-05-17T03:54:04.124Z,2.20
2023-05-17T03:55:04.156Z,2.21
2023-05-17T03:56:04.115Z,2.20
2023-05-17T03:57:04.101Z,2.21
2023-05-17T03:58:04.085Z,2.21
2023-05-17T03:59:04.080Z,2.20
2023-05-17T04:00:04.073Z,2.20
2023-05-17T04:01:04.041Z,2.20
2023-05-17T04:02:04.040Z,2.19
2023-05-17T04:03:04.055Z,2.17
2023-05-17T04:04:04.110Z,2.14
2023-05-17T04:05:04.049Z,2.13
2023-05-17T04:06:03.983Z,2.12
2023-05-17T04:07:03.967Z,2.12
2023-05-17T04:08:03.961Z,2.11
2023-05-17T04:09:03.948Z,2.12
2023-05-17T04:10:03.939Z,2.13
2023-05-17T04:11:03.905Z,2.13
2023-05-17T04:12:03.915Z,2.13
2023-05-17T04:13:03.894Z,2.14
2023-05-17T04:14:02.075Z,2.15
2023-05-17T04:15:03.866Z,2.16
2023-05-17T04:16:03.834Z,2.19
2023-05-17T04:17:03.837Z,2.21
2023-05-17T04:18:03.892Z,2.24
2023-05-17T04:19:03.856Z,2.28
2023-05-17T04:20:03.805Z,2.31
2023-05-17T04:21:03.773Z,2.34
2023-05-17T04:22:03.762Z,2.34
2023-05-17T04:23:03.763Z,2.35
2023-05-17T04:24:03.747Z,2.34
2023-05-17T04:25:03.734Z,2.34
2023-05-17T04:26:03.719Z,2.32
2023-05-17T04:27:03.764Z,2.32
2023-05-17T04:28:03.688Z,2.33
2023-05-17T04:29:03.667Z,2.36
2023-05-17T04:30:03.660Z,2.42
2023-05-17T04:31:03.636Z,2.45
2023-05-17T04:32:03.637Z,2.49
2023-05-17T04:33:03.722Z,2.54
2023-05-17T04:34:03.652Z,2.59
2023-05-17T04:35:03.588Z,2.64
2023-05-17T04:36:03.579Z,2.67
2023-05-17T04:37:03.683Z,2.70
2023-05-17T04:38:03.561Z,2.72
2023-05-17T04:39:03.551Z,2.74
2023-05-17T04:40:03.526Z,2.75
2023-05-17T04:41:03.511Z,2.79
2023-05-17T04:42:03.515Z,2.83
2023-05-17T04:43:03.480Z,2.86
2023-05-17T04:44:03.514Z,2.89
2023-05-17T04:45:03.461Z,2.95
2023-05-17T04:46:03.446Z,3.07
2023-05-17T04:47:03.451Z,3.22
2023-05-17T04:48:03.506Z,3.38
2023-05-17T04:49:03.482Z,3.53
2023-05-17T04:50:03.399Z,3.65
2023-05-17T04:51:03.381Z,3.75
2023-05-17T04:52:03.515Z,3.85
2023-05-17T04:53:03.382Z,3.96
2023-05-17T04:54:03.351Z,4.04
2023-05-17T04:55:03.346Z,4.12
2023-05-17T04:56:03.306Z,4.18
2023-05-17T04:57:03.326Z,4.26
2023-05-17T04:58:03.303Z,4.35
2023-05-17T04:59:03.277Z,4.52
2023-05-17T05:00:03.259Z,4.69
2023-05-17T05:01:03.254Z,4.82
2023-05-17T05:02:03.226Z,4.98
2023-05-17T05:03:03.351Z,5.15
2023-05-17T05:04:03.380Z,5.31
2023-05-17T05:05:03.404Z,5.47
2023-05-17T05:06:03.185Z,5.57
2023-05-17T05:07:03.178Z,5.69
2023-05-17T05:08:03.158Z,5.77
2023-05-17T05:09:03.136Z,5.81
2023-05-17T05:10:03.124Z,5.93
2023-05-17T05:11:03.106Z,6.05
2023-05-17T05:12:03.098Z,6.19
2023-05-17T05:13:03.092Z,6.35
2023-05-17T05:14:03.066Z,6.48
2023-05-17T05:15:03.054Z,6.60
2023-05-17T05:16:03.049Z,6.79
2023-05-17T05:17:03.070Z,7.07
2023-05-17T05:18:03.192Z,7.36
2023-05-17T05:19:03.212Z,7.58
2023-05-17T05:20:03.025Z,7.69
2023-05-17T05:21:03.004Z,7.84
2023-05-17T05:22:02.977Z,7.91
2023-05-17T05:23:02.962Z,8.03
2023-05-17T05:24:02.935Z,8.24
2023-05-17T05:25:02.932Z,8.40
2023-05-17T05:26:02.939Z,8.49
2023-05-17T05:27:04.413Z,8.51
2023-05-17T05:28:02.880Z,8.46
2023-05-17T05:29:02.887Z,8.10
2023-05-17T05:30:02.862Z,7.79
2023-05-17T05:31:02.844Z,7.49
2023-05-17T05:32:02.825Z,7.16
2023-05-17T05:33:02.891Z,6.96
2023-05-17T05:34:02.903Z,6.79
2023-05-17T05:35:02.798Z,6.66
2023-05-17T05:36:02.795Z,6.55
2023-05-17T05:37:02.774Z,6.41
2023-05-17T05:38:02.756Z,6.31
2023-05-17T05:39:02.733Z,6.23
2023-05-17T05:40:02.735Z,6.15
2023-05-17T05:41:02.714Z,6.13
2023-05-17T05:42:02.694Z,6.12
2023-05-17T05:43:02.685Z,6.13
2023-05-17T05:44:02.669Z,6.10
2023-05-17T05:45:02.665Z,6.10
2023-05-17T05:46:01.732Z,6.13
2023-05-17T05:47:02.629Z,6.15
2023-05-17T05:48:02.801Z,6.17
2023-05-17T05:49:02.770Z,6.23
2023-05-17T05:50:02.585Z,6.30
2023-05-17T05:51:02.579Z,6.39
2023-05-17T05:52:02.582Z,6.47
2023-05-17T05:53:14.408Z,6.54
2023-05-17T05:54:03.564Z,6.61
2023-05-17T05:55:02.513Z,6.68
2023-05-17T05:56:02.532Z,6.76
2023-05-17T05:57:02.506Z,6.83
2023-05-17T05:58:02.493Z,6.90
2023-05-17T05:59:02.483Z,6.99
2023-05-17T06:00:02.482Z,7.10
2023-05-17T06:01:04.081Z,7.20
2023-05-17T06:02:02.431Z,7.33
2023-05-17T06:03:02.436Z,7.45
2023-05-17T06:04:00.616Z,7.57
2023-05-17T06:05:02.382Z,7.70
2023-05-17T06:06:02.506Z,7.83
2023-05-17T06:07:00.876Z,7.96
2023-05-17T06:08:02.489Z,8.07
2023-05-17T06:09:02.366Z,8.16
2023-05-17T06:10:05.820Z,8.26
2023-05-17T06:11:02.326Z,8.37
2023-05-17T06:12:02.301Z,8.49
2023-05-17T06:13:02.362Z,8.59
2023-05-17T06:14:02.303Z,8.68
2023-05-17T06:15:02.267Z,8.76
2023-05-17T06:16:02.309Z,8.86
2023-05-17T06:17:02.243Z,8.96
2023-05-17T06:18:02.342Z,9.07
2023-05-17T06:19:02.530Z,9.16
2023-05-17T06:20:02.346Z,9.27
2023-05-17T06:21:02.164Z,9.42
2023-05-17T06:22:02.172Z,9.69
2023-05-17T06:23:02.149Z,10.08
2023-05-17T06:24:04.781Z,10.55
2023-05-17T06:25:02.143Z,11.03
2023-05-17T06:26:02.116Z,11.59
2023-05-17T06:27:02.114Z,12.09
2023-05-17T06:28:02.077Z,12.58
2023-05-17T06:29:02.066Z,12.99
2023-05-17T06:30:03.248Z,13.25
2023-05-17T06:31:02.137Z,13.45
2023-05-17T06:32:02.031Z,13.44
2023-05-17T06:33:02.100Z,13.34
2023-05-17T06:34:01.130Z,13.25
2023-05-17T06:35:02.040Z,13.56
2023-05-17T06:37:01.968Z,14.17
2023-05-17T06:38:01.947Z,14.46
2023-05-17T06:39:01.935Z,14.78
2023-05-17T06:40:09.946Z,14.91
2023-05-17T06:41:02.901Z,14.49
2023-05-17T06:42:01.907Z,14.34
2023-05-17T06:43:01.868Z,13.94
2023-05-17T06:44:01.854Z,13.80
2023-05-17T06:45:01.858Z,13.88
2023-05-17T06:46:02.020Z,13.63
2023-05-17T06:47:01.827Z,13.34
2023-05-17T06:48:01.954Z,13.14
2023-05-17T06:49:01.913Z,12.83
2023-05-17T06:50:01.794Z,12.49
2023-05-17T06:51:00.211Z,12.11
2023-05-17T06:52:02.553Z,12.09
2023-05-17T06:53:01.742Z,11.91
2023-05-17T06:54:01.706Z,11.81
2023-05-17T06:55:01.734Z,11.70
2023-05-17T06:56:01.692Z,11.58
2023-05-17T06:57:01.684Z,11.59
2023-05-17T06:58:01.701Z,11.43
2023-05-17T06:59:01.647Z,11.36
2023-05-17T07:00:01.647Z,11.23
2023-05-17T07:01:01.631Z,11.19
2023-05-17T07:02:01.094Z,11.05
2023-05-17T07:03:01.758Z,11.02
2023-05-17T07:04:01.795Z,11.01
2023-05-17T07:05:01.616Z,11.01
2023-05-17T07:06:01.562Z,11.04
2023-05-17T07:07:01.542Z,11.04
2023-05-17T07:08:01.543Z,11.09
2023-05-17T07:09:01.541Z,11.16
2023-05-17T07:10:01.499Z,11.23
2023-05-17T07:11:01.514Z,11.25
2023-05-17T07:12:01.642Z,11.22
2023-05-17T07:13:01.502Z,11.23
2023-05-17T07:14:01.461Z,11.27
2023-05-17T07:15:01.476Z,11.27
2023-05-17T07:16:01.421Z,11.27
2023-05-17T07:17:01.442Z,11.25
2023-05-17T07:18:02.083Z,11.25
2023-05-17T07:19:02.701Z,11.25
2023-05-17T07:20:01.494Z,11.22
2023-05-17T07:21:01.365Z,11.23
2023-05-17T07:22:01.357Z,11.21
2023-05-17T07:23:01.328Z,11.19
2023-05-17T07:24:01.358Z,11.18
2023-05-17T07:25:01.316Z,11.17
2023-05-17T07:26:01.793Z,11.24
2023-05-17T07:27:01.261Z,11.38
2023-05-17T07:28:01.271Z,11.47
2023-05-17T07:29:01.261Z,11.53
2023-05-17T07:30:00.752Z,11.56
2023-05-17T07:31:01.220Z,11.59
2023-05-17T07:31:59.779Z,11.62
2023-05-17T07:33:01.245Z,11.56
2023-05-17T07:34:01.250Z,11.54
2023-05-17T07:35:01.161Z,11.50
2023-05-17T07:36:01.196Z,11.47
2023-05-17T07:37:01.138Z,11.48
2023-05-17T07:38:01.146Z,11.54
2023-05-17T07:39:01.179Z,11.61
2023-05-17T07:40:00.163Z,11.65
2023-05-17T07:41:01.083Z,11.75
2023-05-17T07:42:01.919Z,11.87
2023-05-17T07:42:59.172Z,11.93
2023-05-17T07:44:01.046Z,12.01
2023-05-17T07:45:03.114Z,12.09
2023-05-17T07:46:01.509Z,12.20
2023-05-17T07:47:01.202Z,12.35
2023-05-17T07:48:01.077Z,12.33
2023-05-17T07:49:01.010Z,12.30
2023-05-17T07:50:00.953Z,12.26
2023-05-17T07:51:00.941Z,12.25
2023-05-17T07:52:00.954Z,12.27
2023-05-17T07:53:00.930Z,12.33
2023-05-17T07:54:00.907Z,12.38
2023-05-17T07:55:00.899Z,12.43
2023-05-17T07:56:00.910Z,12.48
2023-05-17T07:57:00.893Z,12.54
2023-05-17T07:58:00.844Z,12.65
2023-05-17T07:59:00.840Z,12.70
2023-05-17T08:00:00.827Z,12.77
2023-05-17T08:01:00.838Z,12.79
2023-05-17T08:02:00.799Z,12.81
2023-05-17T08:03:00.793Z,12.86
2023-05-17T08:04:00.794Z,12.86
2023-05-17T08:05:00.787Z,12.89
2023-05-17T08:06:00.772Z,12.82
2023-05-17T08:07:00.993Z,12.72
2023-05-17T08:08:00.713Z,12.64
2023-05-17T08:09:00.690Z,12.65
2023-05-17T08:10:00.687Z,12.73
2023-05-17T08:11:00.695Z,12.77
2023-05-17T08:12:00.658Z,12.72
2023-05-17T08:13:00.658Z,12.66
2023-05-17T08:14:00.635Z,12.65
2023-05-17T08:15:00.622Z,12.50
2023-05-17T08:16:08.966Z,12.32
2023-05-17T08:17:02.612Z,12.19
2023-05-17T08:18:03.715Z,12.09
2023-05-17T08:19:00.654Z,12.08
2023-05-17T08:20:00.641Z,12.11
2023-05-17T08:21:00.541Z,12.12
2023-05-17T08:22:00.514Z,12.09
2023-05-17T08:23:00.505Z,12.04
2023-05-17T08:24:02.141Z,12.04
2023-05-17T08:25:00.500Z,12.10
2023-05-17T08:26:01.210Z,12.10
2023-05-17T08:27:00.451Z,12.13
2023-05-17T08:28:00.430Z,12.18
2023-05-17T08:29:00.437Z,12.24
2023-05-17T08:30:00.398Z,12.28
2023-05-17T08:30:58.863Z,12.28
2023-05-17T08:32:00.372Z,12.32
2023-05-17T08:33:00.606Z,12.35
2023-05-17T08:34:00.467Z,12.41
2023-05-17T08:35:00.347Z,12.50
2023-05-17T08:36:00.331Z,12.65
2023-05-17T08:37:00.382Z,12.81
2023-05-17T08:38:00.298Z,12.90
2023-05-17T08:39:00.299Z,12.93
2023-05-17T08:40:00.332Z,12.94
2023-05-17T08:41:00.257Z,12.94
2023-05-17T08:42:00.249Z,12.99
2023-05-17T08:43:00.238Z,13.10
2023-05-17T08:44:00.225Z,13.22
2023-05-17T08:45:00.203Z,13.42
2023-05-17T08:46:00.212Z,13.60
2023-05-17T08:47:00.175Z,13.62
2023-05-17T08:48:00.204Z,13.64
2023-05-17T08:49:00.532Z,13.65
2023-05-17T08:50:00.168Z,13.65
2023-05-17T08:51:00.229Z,13.97
2023-05-17T08:52:00.110Z,14.04
2023-05-17T08:53:00.259Z,14.08
2023-05-17T08:54:00.079Z,14.13
2023-05-17T08:55:00.091Z,14.02
2023-05-17T08:56:00.072Z,13.91
2023-05-17T08:57:00.071Z,13.80
2023-05-17T08:58:00.038Z,13.77
2023-05-17T08:59:00.011Z,13.71
2023-05-17T09:00:00.005Z,13.68
2023-05-17T09:00:59.970Z,13.57
2023-05-17T09:01:59.979Z,13.43
2023-05-17T09:03:00.026Z,13.37
2023-05-17T09:03:59.934Z,13.29
2023-05-17T09:05:00.039Z,13.26
2023-05-17T09:05:59.933Z,13.28
2023-05-17T09:06:59.926Z,13.33
2023-05-17T09:07:59.882Z,13.46
2023-05-17T09:08:59.864Z,13.61
2023-05-17T09:09:59.848Z,13.77
2023-05-17T09:10:59.836Z,14.22
2023-05-17T09:11:59.836Z,14.37
2023-05-17T09:12:59.816Z,14.39
2023-05-17T09:13:59.809Z,14.36
2023-05-17T09:14:59.795Z,14.38
2023-05-17T09:15:59.767Z,14.33
2023-05-17T09:16:59.769Z,14.26
2023-05-17T09:17:59.815Z,14.18
2023-05-17T09:18:59.927Z,14.04
2023-05-17T09:19:59.813Z,13.92
2023-05-17T09:20:59.715Z,13.79
2023-05-17T09:21:59.694Z,13.67
2023-05-17T09:22:59.682Z,13.64
2023-05-17T09:24:06.148Z,13.52
2023-05-17T09:25:00.645Z,13.42
2023-05-17T09:25:59.643Z,13.34
2023-05-17T09:26:57.912Z,13.27
2023-05-17T09:27:59.608Z,13.15
2023-05-17T09:28:59.623Z,13.02
2023-05-17T09:29:59.571Z,12.89
2023-05-17T09:30:59.580Z,12.79
2023-05-17T09:31:59.550Z,12.72
2023-05-17T09:32:59.550Z,12.64
2023-05-17T09:33:59.563Z,12.63
2023-05-17T09:34:59.542Z,12.63
2023-05-17T09:35:59.522Z,12.64
2023-05-17T09:36:59.509Z,12.68
2023-05-17T09:37:59.462Z,12.67
2023-05-17T09:38:59.532Z,12.71
2023-05-17T09:39:59.465Z,12.73
2023-05-17T09:40:59.465Z,12.76
2023-05-17T09:41:59.427Z,12.80
2023-05-17T09:42:58.201Z,12.85
2023-05-17T09:43:59.397Z,12.90
2023-05-17T09:44:59.393Z,12.94
2023-05-17T09:45:59.380Z,13.06
2023-05-17T09:46:59.352Z,13.16
2023-05-17T09:47:59.479Z,13.20
2023-05-17T09:48:59.471Z,13.26
2023-05-17T09:49:59.415Z,13.30
2023-05-17T09:50:59.311Z,14.08
2023-05-17T09:51:59.301Z,15.11
2023-05-17T09:52:59.283Z,15.57
2023-05-17T09:53:59.260Z,15.72
2023-05-17T09:54:59.267Z,15.74
2023-05-17T09:55:59.228Z,15.88
2023-05-17T09:56:59.230Z,16.29
2023-05-17T09:57:59.238Z,16.37
2023-05-17T09:58:57.254Z,16.20
2023-05-17T09:59:59.186Z,15.91
2023-05-17T10:00:59.183Z,15.68
2023-05-17T10:01:59.148Z,15.54
2023-05-17T10:02:59.238Z,15.41
2023-05-17T10:03:59.198Z,15.28
2023-05-17T10:04:59.149Z,15.34
2023-05-17T10:05:59.088Z,15.29
2023-05-17T10:06:59.077Z,15.14
2023-05-17T10:07:59.059Z,14.92
2023-05-17T10:08:59.071Z,14.68
2023-05-17T10:09:59.042Z,14.47
2023-05-17T10:10:59.016Z,14.21
2023-05-17T10:11:59.017Z,14.00
2023-05-17T10:12:59.009Z,13.89
2023-05-17T10:13:59.004Z,13.80
2023-05-17T10:14:59.000Z,13.68
2023-05-17T10:15:58.955Z,13.58
2023-05-17T10:16:58.974Z,13.47
2023-05-17T10:17:58.939Z,13.40
2023-05-17T10:18:59.087Z,13.40
2023-05-17T10:19:59.011Z,13.37
2023-05-17T10:20:58.896Z,13.29
2023-05-17T10:22:11.142Z,13.28
2023-05-17T10:22:59.872Z,13.27
2023-05-17T10:23:58.855Z,13.27
2023-05-17T10:24:58.853Z,13.24
2023-05-17T10:25:58.832Z,13.19
2023-05-17T10:26:58.808Z,13.24
2023-05-17T10:27:58.820Z,13.30
2023-05-17T10:28:58.775Z,13.42
2023-05-17T10:29:58.774Z,13.57
2023-05-17T10:30:58.748Z,13.68
2023-05-17T10:31:58.738Z,13.79
2023-05-17T10:32:58.892Z,13.93
2023-05-17T10:33:58.769Z,14.12
2023-05-17T10:35:10.630Z,14.28
2023-05-17T10:35:59.703Z,14.44
2023-05-17T10:36:58.680Z,14.60
2023-05-17T10:37:58.675Z,14.87
2023-05-17T10:38:58.665Z,15.01
2023-05-17T10:39:58.634Z,15.21
2023-05-17T10:40:59.861Z,15.35
2023-05-17T10:42:13.405Z,15.48
2023-05-17T10:42:59.625Z,15.71
2023-05-17T10:43:58.586Z,15.75
2023-05-17T10:44:58.558Z,15.82
2023-05-17T10:45:58.538Z,15.84
2023-05-17T10:46:58.555Z,15.88
2023-05-17T10:48:00.459Z,15.87
2023-05-17T10:48:58.569Z,15.78
2023-05-17T10:49:58.483Z,15.63
2023-05-17T10:51:01.906Z,15.52
2023-05-17T10:51:58.477Z,15.44
2023-05-17T10:52:58.445Z,15.33
2023-05-17T10:53:58.442Z,15.21
2023-05-17T10:54:58.476Z,15.07
2023-05-17T10:55:58.442Z,14.95
2023-05-17T10:56:58.406Z,14.79
2023-05-17T10:57:58.382Z,14.65
2023-05-17T10:58:58.375Z,14.49
2023-05-17T10:59:58.350Z,14.37
2023-05-17T11:00:58.354Z,14.29
2023-05-17T11:01:58.333Z,14.21
2023-05-17T11:02:58.408Z,14.12
2023-05-17T11:03:58.316Z,14.06
2023-05-17T11:04:58.400Z,14.09
2023-05-17T11:05:58.359Z,14.13
2023-05-17T11:06:58.256Z,14.11
2023-05-17T11:07:58.240Z,14.12
2023-05-17T11:08:57.736Z,14.19
2023-05-17T11:09:58.213Z,14.27
2023-05-17T11:10:58.208Z,14.31
2023-05-17T11:11:58.188Z,14.37
2023-05-17T11:12:58.178Z,14.43
2023-05-17T11:13:58.163Z,14.42
2023-05-17T11:14:58.153Z,14.45
2023-05-17T11:15:58.141Z,14.52
2023-05-17T11:16:58.413Z,14.58
2023-05-17T11:17:58.239Z,14.62
2023-05-17T11:18:58.163Z,14.62
2023-05-17T11:19:58.175Z,14.67
2023-05-17T11:20:58.206Z,14.75
2023-05-17T11:21:58.072Z,14.76
2023-05-17T11:22:58.045Z,14.73
2023-05-17T11:23:58.029Z,14.71
2023-05-17T11:24:58.056Z,14.68
2023-05-17T11:26:00.420Z,14.68
2023-05-17T11:26:59.043Z,14.69
2023-05-17T11:27:58.035Z,14.71
2023-05-17T11:28:57.960Z,14.75
2023-05-17T11:29:57.947Z,14.71
2023-05-17T11:30:57.925Z,14.66
2023-05-17T11:31:57.917Z,14.68
2023-05-17T11:32:58.017Z,14.75
2023-05-17T11:33:57.914Z,14.91
2023-05-17T11:34:57.891Z,15.00
2023-05-17T11:35:57.872Z,15.13
2023-05-17T11:36:57.880Z,15.25
2023-05-17T11:37:57.834Z,15.37
2023-05-17T11:39:07.370Z,15.68
2023-05-17T11:39:58.822Z,16.10
2023-05-17T11:40:57.821Z,16.41
2023-05-17T11:41:57.796Z,16.90
2023-05-17T11:42:57.774Z,17.47
2023-05-17T11:43:57.776Z,17.72
2023-05-17T11:44:57.751Z,18.08
2023-05-17T11:45:57.911Z,18.24
2023-05-17T11:46:57.732Z,18.12
2023-05-17T11:47:57.767Z,17.96
2023-05-17T11:48:57.800Z,18.16
2023-05-17T11:49:57.657Z,18.51
2023-05-17T11:50:58.897Z,19.08
2023-05-17T11:51:57.664Z,19.48
2023-05-17T11:52:57.640Z,19.89
2023-05-17T11:53:57.648Z,20.05
2023-05-17T11:54:57.616Z,19.29
2023-05-17T11:55:57.593Z,18.78
2023-05-17T11:56:57.597Z,18.57
2023-05-17T11:57:57.589Z,18.42
2023-05-17T11:58:57.548Z,18.07
2023-05-17T11:59:57.563Z,17.75
2023-05-17T12:00:57.546Z,17.61
2023-05-17T12:01:57.522Z,17.47
2023-05-17T12:02:57.636Z,17.39
2023-05-17T12:03:57.485Z,17.22
2023-05-17T12:04:57.521Z,17.03
2023-05-17T12:05:57.474Z,16.93
2023-05-17T12:06:57.456Z,16.89
2023-05-17T12:07:57.455Z,16.86
2023-05-17T12:08:57.436Z,17.15
2023-05-17T12:09:57.423Z,17.71
2023-05-17T12:10:57.388Z,17.87
2023-05-17T12:11:57.384Z,18.05
2023-05-17T12:12:57.385Z,18.38
2023-05-17T12:13:57.352Z,19.04
2023-05-17T12:14:57.337Z,19.21
2023-05-17T12:15:57.331Z,19.32
2023-05-17T12:16:57.395Z,19.20
2023-05-17T12:17:57.498Z,19.11
2023-05-17T12:19:57.345Z,18.52
2023-05-17T12:20:57.310Z,18.20
2023-05-17T12:21:57.240Z,17.69
2023-05-17T12:22:57.273Z,17.32
2023-05-17T12:23:57.233Z,17.12
2023-05-17T12:24:57.271Z,16.84
2023-05-17T12:25:57.197Z,16.64
2023-05-17T12:26:57.199Z,16.59
2023-05-17T12:27:57.170Z,16.91
2023-05-17T12:28:57.146Z,16.98
2023-05-17T12:29:57.157Z,16.97
2023-05-17T12:30:57.124Z,17.36
2023-05-17T12:31:57.126Z,18.02
2023-05-17T12:32:57.259Z,18.34
2023-05-17T12:33:57.133Z,18.77
2023-05-17T12:34:57.104Z,18.97
2023-05-17T12:35:57.056Z,19.17
2023-05-17T12:36:57.033Z,19.30
2023-05-17T12:37:57.026Z,19.55
2023-05-17T12:38:57.039Z,19.91
2023-05-17T12:39:57.026Z,20.11
2023-05-17T12:40:57.008Z,20.31
2023-05-17T12:41:56.960Z,20.60
2023-05-17T12:42:56.463Z,20.69
2023-05-17T12:44:13.618Z,20.80
2023-05-17T12:44:57.990Z,20.79
2023-05-17T12:45:56.929Z,20.54
2023-05-17T12:46:56.891Z,20.43
2023-05-17T12:47:56.927Z,20.54
2023-05-17T12:48:56.903Z,20.71
2023-05-17T12:49:56.857Z,20.74
2023-05-17T12:50:56.881Z,20.68
2023-05-17T12:51:56.824Z,20.74
2023-05-17T12:52:56.832Z,20.85
2023-05-17T12:53:56.800Z,21.06
2023-05-17T12:54:56.803Z,21.25
2023-05-17T12:55:56.777Z,21.68
2023-05-17T12:56:56.805Z,21.99
2023-05-17T12:57:56.746Z,21.81
2023-05-17T12:58:56.744Z,21.81
2023-05-17T12:59:56.752Z,21.91
2023-05-17T13:00:56.719Z,21.82
2023-05-17T13:01:56.741Z,21.80
2023-05-17T13:02:56.786Z,21.46
2023-05-17T13:03:56.762Z,21.19
2023-05-17T13:04:56.730Z,20.58
2023-05-17T13:05:56.649Z,19.93
2023-05-17T13:06:56.651Z,19.27